Time,TemperatureF,DewpointF,PressureIn,WindDirection,WindDirectionDegrees,WindSpeedMPH,WindSpeedGustMPH,Humidity,HourlyPrecipIn,Conditions,Clouds,dailyrainin,SolarRadiationWatts/m^2,SoftwareType,DateUTC
2013-04-12 00:02:00,39.0,21.0,-100.00,North,11,2.0,9.0,49,0.00,,,0.02,1.000000,,2013-04-12 06:02:00,
2013-04-12 00:12:00,39.0,21.0,-100.00,North,11,2.0,9.0,49,0.00,,,0.02,1.000000,,2013-04-12 06:12:00,
2013-04-12 00:32:00,37.0,21.0,-100.00,ESE,102,3.0,6.0,53,0.00,,,0.02,1.000000,,2013-04-12 06:32:00,
2013-04-12 00:42:00,37.0,21.0,-100.00,ESE,102,3.0,6.0,53,0.00,,,0.02,1.000000,,2013-04-12 06:42:00,
2013-04-12 00:52:00,37.0,21.0,-100.00,ESE,102,3.0,6.0,53,0.00,,,0.02,1.000000,,2013-04-12 06:52:00,
2013-04-12 01:01:00,37.0,21.0,-100.00,ESE,102,3.0,6.0,53,0.00,,,0.02,1.000000,,2013-04-12 07:01:00,
2013-04-12 01:11:00,37.0,21.0,-100.00,ESE,102,3.0,6.0,53,0.00,,,0.02,1.000000,,2013-04-12 07:11:00,
2013-04-12 01:42:00,32.0,22.0,-100.00,SSE,150,2.0,7.0,67,0.00,,,0.01,1.000000,,2013-04-12 07:42:00,
2013-04-12 01:52:00,32.0,22.0,-100.00,SSE,150,2.0,7.0,67,0.00,,,0.01,1.000000,,2013-04-12 07:52:00,
2013-04-12 02:03:00,32.0,22.0,-100.00,SSE,150,2.0,7.0,67,0.00,,,0.01,1.000000,,2013-04-12 08:03:00,
2013-04-12 02:11:00,32.0,22.0,-100.00,SSE,150,2.0,7.0,67,0.00,,,0.01,1.000000,,2013-04-12 08:11:00,
2013-04-12 02:32:00,29.0,22.0,-100.00,SE,146,2.0,4.0,75,0.00,,,0.01,1.000000,,2013-04-12 08:32:00,
2013-04-12 02:42:00,29.0,22.0,-100.00,SE,146,2.0,4.0,75,0.00,,,0.01,1.000000,,2013-04-12 08:42:00,
2013-04-12 02:52:00,29.0,22.0,-100.00,SE,146,2.0,4.0,75,0.00,,,0.01,1.000000,,2013-04-12 08:52:00,
2013-04-12 03:02:00,29.0,22.0,-100.00,SE,146,2.0,4.0,75,0.00,,,0.01,1.000000,,2013-04-12 09:02:00,
2013-04-12 03:12:00,29.0,22.0,-100.00,SE,146,2.0,4.0,75,0.00,,,0.01,1.000000,,2013-04-12 09:12:00,
2013-04-12 03:33:00,27.0,21.0,-100.00,SSE,160,0.0,4.0,79,0.00,,,0.00,1.000000,,2013-04-12 09:33:00,
2013-04-12 03:44:00,27.0,21.0,-100.00,SSE,160,0.0,4.0,79,0.00,,,0.00,1.000000,,2013-04-12 09:44:00,
2013-04-12 03:53:00,27.0,21.0,-100.00,SSE,160,0.0,4.0,79,0.00,,,0.00,1.000000,,2013-04-12 09:53:00,
2013-04-12 04:02:00,27.0,21.0,-100.00,SSE,160,0.0,4.0,79,0.00,,,0.00,1.000000,,2013-04-12 10:02:00,
2013-04-12 04:12:00,27.0,21.0,-100.00,SSE,160,0.0,4.0,79,0.00,,,0.00,1.000000,,2013-04-12 10:12:00,
2013-04-12 04:42:00,26.0,21.0,-100.00,NE,56,0.0,4.0,81,0.00,,,-99.99,1.000000,,2013-04-12 10:42:00,
2013-04-12 04:53:00,26.0,21.0,-100.00,NE,56,0.0,4.0,81,0.00,,,-99.99,1.000000,,2013-04-12 10:53:00,
2013-04-12 05:02:00,26.0,21.0,-100.00,NE,56,0.0,4.0,81,0.00,,,-99.99,1.000000,,2013-04-12 11:02:00,
2013-04-12 05:12:00,26.0,21.0,-100.00,NE,56,0.0,4.0,81,0.00,,,-99.99,1.000000,,2013-04-12 11:12:00,
2013-04-12 05:43:00,25.0,20.0,-100.00,ENE,72,2.0,2.0,82,0.00,,,0.00,1.000000,,2013-04-12 11:43:00,
2013-04-12 05:52:00,25.0,20.0,-100.00,ENE,72,2.0,2.0,82,0.00,,,0.00,1.000000,,2013-04-12 11:52:00,
2013-04-12 06:02:00,25.0,20.0,-100.00,ENE,72,2.0,2.0,82,0.00,,,0.00,1.000000,,2013-04-12 12:02:00,
2013-04-12 06:12:00,25.0,20.0,-100.00,ENE,72,2.0,2.0,82,0.00,,,0.00,1.000000,,2013-04-12 12:12:00,
2013-04-12 06:33:00,24.0,20.0,-100.00,NE,55,1.0,3.0,85,0.00,,,0.00,1.000000,,2013-04-12 12:33:00,
2013-04-12 06:42:00,24.0,20.0,-100.00,NE,55,1.0,3.0,85,0.00,,,0.00,1.000000,,2013-04-12 12:42:00,
2013-04-12 06:53:00,24.0,20.0,-100.00,NE,55,1.0,3.0,85,0.00,,,0.00,1.000000,,2013-04-12 12:53:00,
2013-04-12 07:03:00,24.0,20.0,-100.00,NE,55,1.0,3.0,85,0.00,,,0.00,1.000000,,2013-04-12 13:03:00,
2013-04-12 07:12:00,24.0,20.0,-100.00,NE,55,1.0,3.0,85,0.00,,,0.00,1.000000,,2013-04-12 13:12:00,
2013-04-12 07:32:00,24.0,21.0,-100.00,SE,143,2.0,3.0,87,0.00,,,0.00,1.000000,,2013-04-12 13:32:00,
2013-04-12 07:43:00,24.0,21.0,-100.00,SE,143,2.0,3.0,87,0.00,,,0.00,1.000000,,2013-04-12 13:43:00,
2013-04-12 07:53:00,24.0,21.0,-100.00,SE,143,2.0,3.0,87,0.00,,,0.00,1.000000,,2013-04-12 13:53:00,
2013-04-12 08:02:00,24.0,21.0,-100.00,SE,143,2.0,3.0,87,0.00,,,0.00,1.000000,,2013-04-12 14:02:00,
2013-04-12 08:12:00,24.0,21.0,-100.00,SE,143,2.0,3.0,87,0.00,,,0.00,1.000000,,2013-04-12 14:12:00,
2013-04-12 08:33:00,23.0,20.0,-100.00,NE,51,1.0,4.0,88,0.00,,,0.00,5.000000,,2013-04-12 14:33:00,
2013-04-12 08:43:00,23.0,20.0,-100.00,NE,51,1.0,4.0,88,0.00,,,0.00,5.000000,,2013-04-12 14:43:00,
2013-04-12 08:53:00,23.0,20.0,-100.00,NE,51,1.0,4.0,88,0.00,,,0.00,5.000000,,2013-04-12 14:53:00,
2013-04-12 09:02:00,23.0,20.0,-100.00,NE,51,1.0,4.0,88,0.00,,,0.00,5.000000,,2013-04-12 15:02:00,
2013-04-12 09:12:00,23.0,20.0,-100.00,NE,51,1.0,4.0,88,0.00,,,0.00,5.000000,,2013-04-12 15:12:00,
2013-04-12 09:43:00,26.0,22.0,-100.00,North,6,1.0,5.0,84,0.00,,,-99.99,28.000000,,2013-04-12 15:43:00,
2013-04-12 10:34:00,33.0,23.0,-100.00,NNW,341,3.0,5.0,65,-99.99,,,-99.99,187.000000,,2013-04-12 16:34:00,
2013-04-12 10:43:00,33.0,23.0,-100.00,NNW,341,3.0,5.0,65,-99.99,,,-99.99,187.000000,,2013-04-12 16:43:00,
2013-04-12 10:53:00,33.0,23.0,-100.00,NNW,341,3.0,5.0,65,-99.99,,,-99.99,187.000000,,2013-04-12 16:53:00,
2013-04-12 11:03:00,33.0,23.0,-100.00,NNW,341,3.0,5.0,65,-99.99,,,-99.99,187.000000,,2013-04-12 17:03:00,
2013-04-12 11:12:00,33.0,23.0,-100.00,NNW,341,3.0,5.0,65,-99.99,,,-99.99,187.000000,,2013-04-12 17:12:00,
2013-04-12 11:47:00,39.0,20.0,-100.00,NNW,331,4.0,7.0,47,0.00,,,0.00,299.000000,,2013-04-12 17:47:00,
2013-04-12 12:02:00,39.0,20.0,-100.00,NNW,331,4.0,7.0,47,0.00,,,0.00,299.000000,,2013-04-12 18:02:00,
2013-04-12 13:43:00,48.0,16.0,-100.00,NNE,22,5.0,11.0,28,0.00,,,0.00,690.000000,,2013-04-12 19:43:00,
2013-04-12 13:53:00,48.0,16.0,-100.00,NNE,22,5.0,11.0,28,0.00,,,0.00,690.000000,,2013-04-12 19:53:00,
2013-04-12 14:02:00,48.0,16.0,-100.00,NNE,22,5.0,11.0,28,0.00,,,0.00,690.000000,,2013-04-12 20:02:00,
2013-04-12 14:12:00,48.0,16.0,-100.00,NNE,22,5.0,11.0,28,0.00,,,0.00,690.000000,,2013-04-12 20:12:00,
2013-04-12 14:43:00,51.0,15.0,-100.00,NW,313,6.0,11.0,23,0.00,,,0.00,827.000000,,2013-04-12 20:43:00,
2013-04-12 14:52:00,51.0,15.0,-100.00,NW,313,6.0,11.0,23,0.00,,,0.00,827.000000,,2013-04-12 20:52:00,
2013-04-12 15:02:00,51.0,15.0,-100.00,NW,313,6.0,11.0,23,0.00,,,0.00,827.000000,,2013-04-12 21:02:00,
2013-04-12 15:11:00,51.0,15.0,-100.00,NW,313,6.0,11.0,23,0.00,,,0.00,827.000000,,2013-04-12 21:11:00,
2013-04-12 15:43:00,53.0,15.0,-100.00,NW,325,5.0,12.0,22,0.00,,,0.00,775.000000,,2013-04-12 21:43:00,
2013-04-12 15:52:00,53.0,15.0,-100.00,NW,325,5.0,12.0,22,0.00,,,0.00,775.000000,,2013-04-12 21:52:00,
2013-04-12 16:02:00,53.0,15.0,-100.00,NW,325,5.0,12.0,22,0.00,,,0.00,775.000000,,2013-04-12 22:02:00,
2013-04-12 16:12:00,53.0,15.0,-100.00,NW,325,5.0,12.0,22,0.00,,,0.00,775.000000,,2013-04-12 22:12:00,
2013-04-12 16:43:00,56.0,13.0,-100.00,NNE,18,5.0,14.0,18,0.00,,,0.00,720.000000,,2013-04-12 22:43:00,
2013-04-12 16:52:00,56.0,13.0,-100.00,NNE,18,5.0,14.0,18,0.00,,,0.00,720.000000,,2013-04-12 22:52:00,
2013-04-12 17:03:00,56.0,13.0,-100.00,NNE,18,5.0,14.0,18,0.00,,,0.00,720.000000,,2013-04-12 23:03:00,
2013-04-12 17:12:00,56.0,13.0,-100.00,NNE,18,5.0,14.0,18,0.00,,,0.00,720.000000,,2013-04-12 23:12:00,
2013-04-12 17:32:00,58.0,11.0,-100.00,NE,54,6.0,14.0,15,0.00,,,0.00,566.000000,,2013-04-12 23:32:00,
2013-04-12 17:42:00,58.0,11.0,-100.00,NE,54,6.0,14.0,15,0.00,,,0.00,566.000000,,2013-04-12 23:42:00,
2013-04-12 17:52:00,58.0,11.0,-100.00,NE,54,6.0,14.0,15,0.00,,,0.00,566.000000,,2013-04-12 23:52:00,
2013-04-12 18:02:00,58.0,11.0,-100.00,NE,54,6.0,14.0,15,0.00,,,0.00,566.000000,,2013-04-13 00:02:00,
2013-04-12 18:12:00,58.0,11.0,-100.00,NE,54,6.0,14.0,15,0.00,,,0.00,566.000000,,2013-04-13 00:12:00,
2013-04-12 19:33:00,56.0,9.0,-100.00,NNE,31,4.0,16.0,15,-99.99,,,0.00,248.000000,,2013-04-13 01:33:00,
2013-04-12 19:43:00,56.0,9.0,-100.00,NNE,31,4.0,16.0,15,-99.99,,,0.00,248.000000,,2013-04-13 01:43:00,
2013-04-12 19:52:00,56.0,9.0,-100.00,NNE,31,4.0,16.0,15,-99.99,,,0.00,248.000000,,2013-04-13 01:52:00,
2013-04-12 20:02:00,56.0,9.0,-100.00,NNE,31,4.0,16.0,15,-99.99,,,0.00,248.000000,,2013-04-13 02:02:00,
2013-04-12 20:12:00,56.0,9.0,-100.00,NNE,31,4.0,16.0,15,-99.99,,,0.00,248.000000,,2013-04-13 02:12:00,
2013-04-12 20:33:00,54.0,10.0,-100.00,ENE,65,3.0,12.0,17,0.00,,,0.00,117.000000,,2013-04-13 02:33:00,
2013-04-12 20:43:00,54.0,10.0,-100.00,ENE,65,3.0,12.0,17,0.00,,,0.00,117.000000,,2013-04-13 02:43:00,
2013-04-12 20:53:00,54.0,10.0,-100.00,ENE,65,3.0,12.0,17,0.00,,,0.00,117.000000,,2013-04-13 02:53:00,
2013-04-12 21:02:00,54.0,10.0,-100.00,ENE,65,3.0,12.0,17,0.00,,,0.00,117.000000,,2013-04-13 03:02:00,
2013-04-12 21:12:00,54.0,10.0,-100.00,ENE,65,3.0,12.0,17,0.00,,,0.00,117.000000,,2013-04-13 03:12:00,
2013-04-12 21:33:00,52.0,10.0,-100.00,NNE,30,5.0,15.0,18,0.00,,,0.00,23.000000,,2013-04-13 03:33:00,
2013-04-12 21:43:00,52.0,10.0,-100.00,NNE,30,5.0,15.0,18,0.00,,,0.00,23.000000,,2013-04-13 03:43:00,
2013-04-12 21:53:00,52.0,10.0,-100.00,NNE,30,5.0,15.0,18,0.00,,,0.00,23.000000,,2013-04-13 03:53:00,
2013-04-12 22:02:00,52.0,10.0,-100.00,NNE,30,5.0,15.0,18,0.00,,,0.00,23.000000,,2013-04-13 04:02:00,
2013-04-12 22:12:00,52.0,10.0,-100.00,NNE,30,5.0,15.0,18,0.00,,,0.00,23.000000,,2013-04-13 04:12:00,
2013-04-12 22:33:00,51.0,12.0,-100.00,North,8,8.0,24.0,21,0.00,,,0.00,1.000000,,2013-04-13 04:33:00,
2013-04-12 22:42:00,51.0,12.0,-100.00,North,8,8.0,24.0,21,0.00,,,0.00,1.000000,,2013-04-13 04:42:00,
2013-04-12 22:53:00,51.0,12.0,-100.00,North,8,8.0,24.0,21,0.00,,,0.00,1.000000,,2013-04-13 04:53:00,
2013-04-12 23:02:00,51.0,12.0,-100.00,North,8,8.0,24.0,21,0.00,,,0.00,1.000000,,2013-04-13 05:02:00,
2013-04-12 23:12:00,51.0,12.0,-100.00,North,8,8.0,24.0,21,0.00,,,0.00,1.000000,,2013-04-13 05:12:00,
2013-04-12 23:32:00,46.0,24.0,-100.00,ENE,63,7.0,18.0,41,0.00,,,0.00,1.000000,,2013-04-13 05:32:00,
2013-04-12 23:43:00,46.0,24.0,-100.00,ENE,63,7.0,18.0,41,0.00,,,0.00,1.000000,,2013-04-13 05:43:00,
2013-04-12 23:52:00,46.0,24.0,-100.00,ENE,63,7.0,18.0,41,0.00,,,0.00,1.000000,,2013-04-13 05:52:00,